sensor_id;sensor_type;location;lat;lon;timestamp;P1;durP1;ratioP1;P2;durP2;ratioP2
59659;SDS011;45534;52.690;6.268;2022-12-18T00:01:32;72.07;;;25.05;;
59659;SDS011;45534;52.690;6.268;2022-12-18T00:03:59;53.75;;;26.17;;
59659;SDS011;45534;52.690;6.268;2022-12-18T00:06:27;58.28;;;28.00;;
59659;SDS011;45534;52.690;6.268;2022-12-18T00:08:54;73.00;;;31.75;;
59659;SDS011;45534;52.690;6.268;2022-12-18T00:11:22;59.30;;;29.80;;
59659;SDS011;45534;52.690;6.268;2022-12-18T00:13:50;57.05;;;28.83;;
59659;SDS011;45534;52.690;6.268;2022-12-18T00:16:17;55.05;;;25.95;;
59659;SDS011;45534;52.690;6.268;2022-12-18T00:18:46;62.05;;;35.25;;
59659;SDS011;45534;52.690;6.268;2022-12-18T00:21:13;54.53;;;32.35;;
59659;SDS011;45534;52.690;6.268;2022-12-18T00:23:40;58.60;;;28.08;;
59659;SDS011;45534;52.690;6.268;2022-12-18T00:26:08;64.43;;;32.78;;
59659;SDS011;45534;52.690;6.268;2022-12-18T00:28:40;47.28;;;23.80;;
59659;SDS011;45534;52.690;6.268;2022-12-18T00:31:10;56.80;;;24.00;;
59659;SDS011;45534;52.690;6.268;2022-12-18T00:33:38;57.17;;;28.65;;
59659;SDS011;45534;52.690;6.268;2022-12-18T00:36:05;57.20;;;26.98;;
59659;SDS011;45534;52.690;6.268;2022-12-18T00:38:33;65.72;;;27.05;;
59659;SDS011;45534;52.690;6.268;2022-12-18T00:41:00;47.28;;;30.67;;
59659;SDS011;45534;52.690;6.268;2022-12-18T00:43:25;58.53;;;30.50;;
59659;SDS011;45534;52.690;6.268;2022-12-18T00:45:52;70.13;;;38.08;;
59659;SDS011;45534;52.690;6.268;2022-12-18T00:48:17;67.72;;;35.00;;
59659;SDS011;45534;52.690;6.268;2022-12-18T00:50:43;79.43;;;37.33;;
59659;SDS011;45534;52.690;6.268;2022-12-18T00:53:09;49.45;;;21.92;;
59659;SDS011;45534;52.690;6.268;2022-12-18T00:55:35;52.33;;;26.23;;
59659;SDS011;45534;52.690;6.268;2022-12-18T00:58:02;78.93;;;36.40;;
59659;SDS011;45534;52.690;6.268;2022-12-18T01:00:28;71.32;;;36.35;;
59659;SDS011;45534;52.690;6.268;2022-12-18T01:02:54;65.88;;;30.15;;
59659;SDS011;45534;52.690;6.268;2022-12-18T01:05:19;75.63;;;38.15;;
59659;SDS011;45534;52.690;6.268;2022-12-18T01:07:45;62.47;;;29.50;;
59659;SDS011;45534;52.690;6.268;2022-12-18T01:10:11;55.33;;;27.30;;
59659;SDS011;45534;52.690;6.268;2022-12-18T01:12:37;58.05;;;35.45;;
59659;SDS011;45534;52.690;6.268;2022-12-18T01:15:04;76.97;;;39.88;;
59659;SDS011;45534;52.690;6.268;2022-12-18T01:17:31;65.10;;;30.65;;
59659;SDS011;45534;52.690;6.268;2022-12-18T01:19:57;66.68;;;33.13;;
59659;SDS011;45534;52.690;6.268;2022-12-18T01:22:23;61.30;;;36.20;;
59659;SDS011;45534;52.690;6.268;2022-12-18T01:24:49;63.15;;;32.33;;
59659;SDS011;45534;52.690;6.268;2022-12-18T01:27:14;52.42;;;27.10;;
59659;SDS011;45534;52.690;6.268;2022-12-18T01:29:40;59.95;;;24.23;;
59659;SDS011;45534;52.690;6.268;2022-12-18T01:32:06;72.95;;;37.92;;
59659;SDS011;45534;52.690;6.268;2022-12-18T01:34:32;61.88;;;32.25;;
59659;SDS011;45534;52.690;6.268;2022-12-18T01:37:01;56.22;;;31.13;;
59659;SDS011;45534;52.690;6.268;2022-12-18T01:39:28;65.55;;;32.00;;
59659;SDS011;45534;52.690;6.268;2022-12-18T01:41:53;83.07;;;39.72;;
59659;SDS011;45534;52.690;6.268;2022-12-18T01:47:39;62.20;;;29.83;;
59659;SDS011;45534;52.690;6.268;2022-12-18T01:50:18;56.35;;;33.92;;
59659;SDS011;45534;52.690;6.268;2022-12-18T01:52:46;46.42;;;25.42;;
59659;SDS011;45534;52.690;6.268;2022-12-18T01:55:18;50.83;;;31.48;;
59659;SDS011;45534;52.690;6.268;2022-12-18T01:57:46;63.00;;;33.75;;
59659;SDS011;45534;52.690;6.268;2022-12-18T02:00:14;61.47;;;28.35;;
59659;SDS011;45534;52.690;6.268;2022-12-18T02:02:42;51.10;;;22.08;;
59659;SDS011;45534;52.690;6.268;2022-12-18T02:05:10;65.00;;;33.75;;
59659;SDS011;45534;52.690;6.268;2022-12-18T02:18:19;48.22;;;23.77;;
59659;SDS011;45534;52.690;6.268;2022-12-18T02:20:49;37.67;;;23.60;;
59659;SDS011;45534;52.690;6.268;2022-12-18T02:26:16;64.85;;;26.58;;
59659;SDS011;45534;52.690;6.268;2022-12-18T02:28:56;39.72;;;20.95;;
59659;SDS011;45534;52.690;6.268;2022-12-18T02:31:28;40.50;;;20.77;;
59659;SDS011;45534;52.690;6.268;2022-12-18T02:34:00;49.22;;;23.70;;
59659;SDS011;45534;52.690;6.268;2022-12-18T02:36:27;45.13;;;23.60;;
59659;SDS011;45534;52.690;6.268;2022-12-18T02:38:55;51.28;;;25.85;;
59659;SDS011;45534;52.690;6.268;2022-12-18T02:41:21;53.05;;;23.95;;
59659;SDS011;45534;52.690;6.268;2022-12-18T02:43:53;41.83;;;27.25;;
59659;SDS011;45534;52.690;6.268;2022-12-18T02:46:31;56.05;;;28.02;;
59659;SDS011;45534;52.690;6.268;2022-12-18T02:54:47;52.92;;;30.02;;
59659;SDS011;45534;52.690;6.268;2022-12-18T02:57:20;52.25;;;28.50;;
59659;SDS011;45534;52.690;6.268;2022-12-18T03:00:13;52.25;;;23.50;;
59659;SDS011;45534;52.690;6.268;2022-12-18T03:05:33;53.83;;;32.10;;
59659;SDS011;45534;52.690;6.268;2022-12-18T03:08:07;51.33;;;30.25;;
59659;SDS011;45534;52.690;6.268;2022-12-18T03:10:37;53.50;;;29.13;;
59659;SDS011;45534;52.690;6.268;2022-12-18T03:13:12;57.50;;;31.50;;
59659;SDS011;45534;52.690;6.268;2022-12-18T03:15:45;50.08;;;29.27;;
59659;SDS011;45534;52.690;6.268;2022-12-18T03:18:18;57.67;;;27.13;;
59659;SDS011;45534;52.690;6.268;2022-12-18T03:20:48;62.40;;;34.78;;
59659;SDS011;45534;52.690;6.268;2022-12-18T03:23:18;40.97;;;21.70;;
59659;SDS011;45534;52.690;6.268;2022-12-18T03:25:49;40.55;;;21.33;;
59659;SDS011;45534;52.690;6.268;2022-12-18T03:28:20;52.00;;;27.55;;
59659;SDS011;45534;52.690;6.268;2022-12-18T03:30:47;59.00;;;30.73;;
59659;SDS011;45534;52.690;6.268;2022-12-18T03:33:25;41.45;;;26.13;;
59659;SDS011;45534;52.690;6.268;2022-12-18T03:35:54;41.60;;;24.15;;
59659;SDS011;45534;52.690;6.268;2022-12-18T03:38:20;39.50;;;25.65;;
59659;SDS011;45534;52.690;6.268;2022-12-18T03:41:04;46.83;;;20.40;;
59659;SDS011;45534;52.690;6.268;2022-12-18T03:46:07;52.70;;;24.90;;
59659;SDS011;45534;52.690;6.268;2022-12-18T03:48:44;43.90;;;22.88;;
59659;SDS011;45534;52.690;6.268;2022-12-18T03:51:24;36.10;;;21.90;;
59659;SDS011;45534;52.690;6.268;2022-12-18T03:54:00;40.63;;;18.33;;
59659;SDS011;45534;52.690;6.268;2022-12-18T03:58:56;37.92;;;23.77;;
59659;SDS011;45534;52.690;6.268;2022-12-18T04:01:31;32.80;;;22.98;;
59659;SDS011;45534;52.690;6.268;2022-12-18T04:04:03;55.00;;;29.42;;
59659;SDS011;45534;52.690;6.268;2022-12-18T04:06:31;45.63;;;24.65;;
59659;SDS011;45534;52.690;6.268;2022-12-18T04:08:57;50.53;;;23.63;;
59659;SDS011;45534;52.690;6.268;2022-12-18T04:11:24;35.22;;;27.00;;
59659;SDS011;45534;52.690;6.268;2022-12-18T04:13:50;42.50;;;18.48;;
59659;SDS011;45534;52.690;6.268;2022-12-18T04:16:19;41.33;;;23.70;;
59659;SDS011;45534;52.690;6.268;2022-12-18T04:18:45;35.88;;;20.02;;
59659;SDS011;45534;52.690;6.268;2022-12-18T04:21:11;34.45;;;19.05;;
59659;SDS011;45534;52.690;6.268;2022-12-18T04:23:36;45.25;;;27.70;;
59659;SDS011;45534;52.690;6.268;2022-12-18T04:26:02;46.25;;;21.75;;
59659;SDS011;45534;52.690;6.268;2022-12-18T04:28:28;44.17;;;23.30;;
59659;SDS011;45534;52.690;6.268;2022-12-18T04:30:53;42.92;;;24.10;;
59659;SDS011;45534;52.690;6.268;2022-12-18T04:33:19;47.92;;;26.52;;
59659;SDS011;45534;52.690;6.268;2022-12-18T04:35:45;45.13;;;28.52;;
59659;SDS011;45534;52.690;6.268;2022-12-18T04:38:10;50.70;;;23.90;;
59659;SDS011;45534;52.690;6.268;2022-12-18T04:40:36;45.67;;;20.33;;
59659;SDS011;45534;52.690;6.268;2022-12-18T04:43:03;49.72;;;20.67;;
59659;SDS011;45534;52.690;6.268;2022-12-18T04:45:29;48.47;;;20.13;;
59659;SDS011;45534;52.690;6.268;2022-12-18T04:47:59;53.28;;;24.08;;
59659;SDS011;45534;52.690;6.268;2022-12-18T04:50:25;48.25;;;22.25;;
59659;SDS011;45534;52.690;6.268;2022-12-18T04:52:51;68.07;;;25.88;;
59659;SDS011;45534;52.690;6.268;2022-12-18T04:55:18;49.00;;;21.48;;
59659;SDS011;45534;52.690;6.268;2022-12-18T04:57:43;36.05;;;22.38;;
59659;SDS011;45534;52.690;6.268;2022-12-18T05:00:09;56.13;;;19.10;;
59659;SDS011;45534;52.690;6.268;2022-12-18T05:02:35;51.95;;;20.10;;
59659;SDS011;45534;52.690;6.268;2022-12-18T05:05:01;50.70;;;19.75;;
59659;SDS011;45534;52.690;6.268;2022-12-18T05:07:27;50.53;;;24.65;;
59659;SDS011;45534;52.690;6.268;2022-12-18T05:09:53;36.83;;;18.33;;
59659;SDS011;45534;52.690;6.268;2022-12-18T05:12:18;39.03;;;21.05;;
59659;SDS011;45534;52.690;6.268;2022-12-18T05:14:44;64.72;;;25.27;;
59659;SDS011;45534;52.690;6.268;2022-12-18T05:17:10;44.30;;;24.73;;
59659;SDS011;45534;52.690;6.268;2022-12-18T05:19:38;40.35;;;19.05;;
59659;SDS011;45534;52.690;6.268;2022-12-18T05:22:04;52.13;;;24.67;;
59659;SDS011;45534;52.690;6.268;2022-12-18T05:24:30;64.53;;;29.52;;
59659;SDS011;45534;52.690;6.268;2022-12-18T05:26:55;51.25;;;25.05;;
59659;SDS011;45534;52.690;6.268;2022-12-18T05:29:21;43.58;;;20.35;;
59659;SDS011;45534;52.690;6.268;2022-12-18T05:31:47;57.08;;;21.83;;
59659;SDS011;45534;52.690;6.268;2022-12-18T05:34:12;44.78;;;20.48;;
59659;SDS011;45534;52.690;6.268;2022-12-18T05:36:38;59.00;;;21.95;;
59659;SDS011;45534;52.690;6.268;2022-12-18T05:39:04;49.45;;;19.30;;
59659;SDS011;45534;52.690;6.268;2022-12-18T05:41:29;60.85;;;19.00;;
59659;SDS011;45534;52.690;6.268;2022-12-18T05:43:55;40.80;;;22.85;;
59659;SDS011;45534;52.690;6.268;2022-12-18T05:46:21;36.75;;;18.73;;
59659;SDS011;45534;52.690;6.268;2022-12-18T05:48:46;52.38;;;23.67;;
59659;SDS011;45534;52.690;6.268;2022-12-18T05:51:14;43.22;;;21.05;;
59659;SDS011;45534;52.690;6.268;2022-12-18T05:53:41;40.78;;;19.00;;
59659;SDS011;45534;52.690;6.268;2022-12-18T05:56:08;44.35;;;17.40;;
59659;SDS011;45534;52.690;6.268;2022-12-18T05:58:44;29.88;;;17.55;;
59659;SDS011;45534;52.690;6.268;2022-12-18T06:01:12;46.05;;;17.65;;
59659;SDS011;45534;52.690;6.268;2022-12-18T06:03:40;37.40;;;15.55;;
59659;SDS011;45534;52.690;6.268;2022-12-18T06:06:17;39.78;;;17.33;;
59659;SDS011;45534;52.690;6.268;2022-12-18T06:08:50;48.55;;;19.55;;
59659;SDS011;45534;52.690;6.268;2022-12-18T06:11:17;40.47;;;13.98;;
59659;SDS011;45534;52.690;6.268;2022-12-18T06:13:45;36.17;;;12.75;;
59659;SDS011;45534;52.690;6.268;2022-12-18T06:16:11;24.23;;;15.00;;
59659;SDS011;45534;52.690;6.268;2022-12-18T06:18:37;31.77;;;17.63;;
59659;SDS011;45534;52.690;6.268;2022-12-18T06:21:03;42.67;;;18.67;;
59659;SDS011;45534;52.690;6.268;2022-12-18T06:23:29;38.05;;;17.83;;
59659;SDS011;45534;52.690;6.268;2022-12-18T06:25:55;34.38;;;19.48;;
59659;SDS011;45534;52.690;6.268;2022-12-18T06:28:21;35.83;;;15.70;;
59659;SDS011;45534;52.690;6.268;2022-12-18T06:30:46;29.83;;;14.70;;
59659;SDS011;45534;52.690;6.268;2022-12-18T06:33:13;22.50;;;12.73;;
59659;SDS011;45534;52.690;6.268;2022-12-18T06:35:39;33.88;;;14.02;;
59659;SDS011;45534;52.690;6.268;2022-12-18T06:38:05;25.48;;;15.60;;
59659;SDS011;45534;52.690;6.268;2022-12-18T06:40:31;38.55;;;18.23;;
59659;SDS011;45534;52.690;6.268;2022-12-18T06:42:57;29.52;;;14.77;;
59659;SDS011;45534;52.690;6.268;2022-12-18T06:45:23;25.65;;;15.70;;
59659;SDS011;45534;52.690;6.268;2022-12-18T06:47:49;35.22;;;16.63;;
59659;SDS011;45534;52.690;6.268;2022-12-18T06:50:15;32.92;;;15.20;;
59659;SDS011;45534;52.690;6.268;2022-12-18T06:52:41;25.58;;;14.23;;
59659;SDS011;45534;52.690;6.268;2022-12-18T06:55:09;40.83;;;20.95;;
59659;SDS011;45534;52.690;6.268;2022-12-18T06:57:35;41.28;;;17.02;;
59659;SDS011;45534;52.690;6.268;2022-12-18T07:00:02;33.78;;;15.15;;
59659;SDS011;45534;52.690;6.268;2022-12-18T07:02:30;25.83;;;15.68;;
59659;SDS011;45534;52.690;6.268;2022-12-18T07:04:57;35.25;;;15.25;;
59659;SDS011;45534;52.690;6.268;2022-12-18T07:07:22;24.35;;;14.65;;
59659;SDS011;45534;52.690;6.268;2022-12-18T07:09:51;20.30;;;12.10;;
59659;SDS011;45534;52.690;6.268;2022-12-18T07:12:16;17.38;;;11.43;;
59659;SDS011;45534;52.690;6.268;2022-12-18T07:14:42;33.25;;;18.10;;
59659;SDS011;45534;52.690;6.268;2022-12-18T07:17:08;33.63;;;15.93;;
59659;SDS011;45534;52.690;6.268;2022-12-18T07:19:34;28.30;;;17.10;;
59659;SDS011;45534;52.690;6.268;2022-12-18T07:22:00;23.48;;;11.98;;
59659;SDS011;45534;52.690;6.268;2022-12-18T07:24:25;22.80;;;9.45;;
59659;SDS011;45534;52.690;6.268;2022-12-18T07:26:51;31.23;;;14.60;;
59659;SDS011;45534;52.690;6.268;2022-12-18T07:29:17;20.95;;;13.63;;
59659;SDS011;45534;52.690;6.268;2022-12-18T07:31:42;31.50;;;15.90;;
59659;SDS011;45534;52.690;6.268;2022-12-18T07:34:11;25.23;;;12.32;;
59659;SDS011;45534;52.690;6.268;2022-12-18T07:36:38;31.73;;;14.30;;
59659;SDS011;45534;52.690;6.268;2022-12-18T07:39:04;32.70;;;16.92;;
59659;SDS011;45534;52.690;6.268;2022-12-18T07:41:29;29.88;;;17.67;;
59659;SDS011;45534;52.690;6.268;2022-12-18T07:43:55;21.85;;;12.40;;
59659;SDS011;45534;52.690;6.268;2022-12-18T07:46:21;29.75;;;15.52;;
59659;SDS011;45534;52.690;6.268;2022-12-18T07:48:46;27.92;;;15.55;;
59659;SDS011;45534;52.690;6.268;2022-12-18T07:51:12;32.53;;;16.77;;
59659;SDS011;45534;52.690;6.268;2022-12-18T07:53:38;29.02;;;14.40;;
59659;SDS011;45534;52.690;6.268;2022-12-18T07:56:07;32.65;;;13.15;;
59659;SDS011;45534;52.690;6.268;2022-12-18T07:58:34;28.77;;;16.67;;
59659;SDS011;45534;52.690;6.268;2022-12-18T08:03:30;34.65;;;23.85;;
59659;SDS011;45534;52.690;6.268;2022-12-18T08:06:02;28.52;;;13.73;;
59659;SDS011;45534;52.690;6.268;2022-12-18T08:08:29;29.08;;;14.52;;
59659;SDS011;45534;52.690;6.268;2022-12-18T08:10:56;38.70;;;18.55;;
59659;SDS011;45534;52.690;6.268;2022-12-18T08:13:22;33.83;;;16.27;;
59659;SDS011;45534;52.690;6.268;2022-12-18T08:15:58;30.40;;;16.40;;
59659;SDS011;45534;52.690;6.268;2022-12-18T08:18:27;26.80;;;17.25;;
59659;SDS011;45534;52.690;6.268;2022-12-18T08:20:53;42.78;;;16.73;;
59659;SDS011;45534;52.690;6.268;2022-12-18T08:23:20;22.85;;;12.02;;
59659;SDS011;45534;52.690;6.268;2022-12-18T08:25:46;24.38;;;17.05;;
59659;SDS011;45534;52.690;6.268;2022-12-18T08:28:12;23.92;;;15.63;;
59659;SDS011;45534;52.690;6.268;2022-12-18T08:30:38;28.02;;;13.05;;
59659;SDS011;45534;52.690;6.268;2022-12-18T08:33:04;9.10;;;7.35;;
59659;SDS011;45534;52.690;6.268;2022-12-18T08:35:30;28.17;;;12.95;;
59659;SDS011;45534;52.690;6.268;2022-12-18T08:37:59;17.80;;;12.57;;
59659;SDS011;45534;52.690;6.268;2022-12-18T08:40:24;14.30;;;9.73;;
59659;SDS011;45534;52.690;6.268;2022-12-18T08:42:50;21.50;;;13.40;;
59659;SDS011;45534;52.690;6.268;2022-12-18T08:45:34;24.90;;;13.98;;
59659;SDS011;45534;52.690;6.268;2022-12-18T08:48:00;24.02;;;14.55;;
59659;SDS011;45534;52.690;6.268;2022-12-18T08:50:25;27.58;;;16.00;;
59659;SDS011;45534;52.690;6.268;2022-12-18T08:52:51;20.33;;;11.98;;
59659;SDS011;45534;52.690;6.268;2022-12-18T08:55:17;24.00;;;15.27;;
59659;SDS011;45534;52.690;6.268;2022-12-18T08:57:42;28.80;;;14.98;;
59659;SDS011;45534;52.690;6.268;2022-12-18T09:00:08;29.23;;;17.55;;
59659;SDS011;45534;52.690;6.268;2022-12-18T09:02:34;27.30;;;17.33;;
59659;SDS011;45534;52.690;6.268;2022-12-18T09:05:00;24.33;;;13.68;;
59659;SDS011;45534;52.690;6.268;2022-12-18T09:07:26;23.65;;;16.02;;
59659;SDS011;45534;52.690;6.268;2022-12-18T09:09:51;21.27;;;14.43;;
59659;SDS011;45534;52.690;6.268;2022-12-18T09:12:17;27.33;;;16.65;;
59659;SDS011;45534;52.690;6.268;2022-12-18T09:14:43;29.13;;;17.55;;
59659;SDS011;45534;52.690;6.268;2022-12-18T09:17:08;21.65;;;14.75;;
59659;SDS011;45534;52.690;6.268;2022-12-18T09:19:34;24.25;;;14.65;;
59659;SDS011;45534;52.690;6.268;2022-12-18T09:22:00;23.17;;;14.27;;
59659;SDS011;45534;52.690;6.268;2022-12-18T09:24:25;23.45;;;14.60;;
59659;SDS011;45534;52.690;6.268;2022-12-18T09:26:54;21.77;;;13.60;;
59659;SDS011;45534;52.690;6.268;2022-12-18T09:29:20;25.88;;;16.25;;
59659;SDS011;45534;52.690;6.268;2022-12-18T09:31:46;16.73;;;10.93;;
59659;SDS011;45534;52.690;6.268;2022-12-18T09:34:12;22.70;;;11.13;;
59659;SDS011;45534;52.690;6.268;2022-12-18T09:36:37;18.92;;;10.95;;
59659;SDS011;45534;52.690;6.268;2022-12-18T09:39:03;20.10;;;11.70;;
59659;SDS011;45534;52.690;6.268;2022-12-18T09:47:06;15.68;;;9.77;;
59659;SDS011;45534;52.690;6.268;2022-12-18T09:49:46;21.25;;;11.30;;
59659;SDS011;45534;52.690;6.268;2022-12-18T09:57:49;11.73;;;8.48;;
59659;SDS011;45534;52.690;6.268;2022-12-18T10:00:20;16.77;;;9.90;;
59659;SDS011;45534;52.690;6.268;2022-12-18T10:02:48;14.60;;;8.23;;
59659;SDS011;45534;52.690;6.268;2022-12-18T10:05:17;18.35;;;9.68;;
59659;SDS011;45534;52.690;6.268;2022-12-18T10:07:57;14.82;;;9.02;;
59659;SDS011;45534;52.690;6.268;2022-12-18T10:10:42;14.85;;;9.43;;
59659;SDS011;45534;52.690;6.268;2022-12-18T10:15:43;14.38;;;7.43;;
59659;SDS011;45534;52.690;6.268;2022-12-18T10:18:24;15.13;;;9.47;;
59659;SDS011;45534;52.690;6.268;2022-12-18T10:21:06;14.07;;;9.68;;
59659;SDS011;45534;52.690;6.268;2022-12-18T10:24:02;13.98;;;8.50;;
59659;SDS011;45534;52.690;6.268;2022-12-18T10:26:24;12.57;;;7.53;;
59659;SDS011;45534;52.690;6.268;2022-12-18T10:28:50;14.07;;;8.10;;
59659;SDS011;45534;52.690;6.268;2022-12-18T10:31:21;13.85;;;7.85;;
59659;SDS011;45534;52.690;6.268;2022-12-18T10:33:48;16.55;;;8.52;;
59659;SDS011;45534;52.690;6.268;2022-12-18T10:36:14;16.30;;;9.45;;
59659;SDS011;45534;52.690;6.268;2022-12-18T10:38:40;14.15;;;7.57;;
59659;SDS011;45534;52.690;6.268;2022-12-18T10:41:08;14.18;;;9.02;;
59659;SDS011;45534;52.690;6.268;2022-12-18T10:46:48;17.33;;;11.18;;
59659;SDS011;45534;52.690;6.268;2022-12-18T10:49:19;15.13;;;8.75;;
59659;SDS011;45534;52.690;6.268;2022-12-18T10:54:57;16.60;;;9.05;;
59659;SDS011;45534;52.690;6.268;2022-12-18T10:57:39;19.55;;;6.53;;
59659;SDS011;45534;52.690;6.268;2022-12-18T11:02:53;15.25;;;8.48;;
59659;SDS011;45534;52.690;6.268;2022-12-18T11:05:34;10.38;;;5.53;;
59659;SDS011;45534;52.690;6.268;2022-12-18T11:08:02;14.95;;;8.63;;
59659;SDS011;45534;52.690;6.268;2022-12-18T11:10:32;11.88;;;5.35;;
59659;SDS011;45534;52.690;6.268;2022-12-18T11:13:09;16.48;;;9.80;;
59659;SDS011;45534;52.690;6.268;2022-12-18T11:15:37;13.18;;;8.50;;
59659;SDS011;45534;52.690;6.268;2022-12-18T11:18:13;12.63;;;7.82;;
59659;SDS011;45534;52.690;6.268;2022-12-18T11:20:41;9.45;;;5.63;;
59659;SDS011;45534;52.690;6.268;2022-12-18T11:23:11;12.43;;;8.02;;
59659;SDS011;45534;52.690;6.268;2022-12-18T11:25:38;14.20;;;6.38;;
59659;SDS011;45534;52.690;6.268;2022-12-18T11:28:50;11.68;;;7.20;;
59659;SDS011;45534;52.690;6.268;2022-12-18T11:31:09;13.45;;;7.30;;
59659;SDS011;45534;52.690;6.268;2022-12-18T11:34:12;11.40;;;9.35;;
59659;SDS011;45534;52.690;6.268;2022-12-18T11:36:47;10.93;;;5.28;;
59659;SDS011;45534;52.690;6.268;2022-12-18T11:44:42;11.15;;;6.40;;
59659;SDS011;45534;52.690;6.268;2022-12-18T11:50:19;9.95;;;7.03;;
59659;SDS011;45534;52.690;6.268;2022-12-18T11:52:48;12.15;;;6.40;;
59659;SDS011;45534;52.690;6.268;2022-12-18T12:08:50;13.32;;;6.38;;
59659;SDS011;45534;52.690;6.268;2022-12-18T12:19:53;9.20;;;6.03;;
59659;SDS011;45534;52.690;6.268;2022-12-18T12:30:18;10.38;;;7.32;;
59659;SDS011;45534;52.690;6.268;2022-12-18T12:32:58;11.15;;;5.85;;
59659;SDS011;45534;52.690;6.268;2022-12-18T12:38:30;7.47;;;6.47;;
59659;SDS011;45534;52.690;6.268;2022-12-18T12:41:09;8.65;;;5.75;;
59659;SDS011;45534;52.690;6.268;2022-12-18T12:43:56;12.88;;;7.80;;
59659;SDS011;45534;52.690;6.268;2022-12-18T12:46:25;7.60;;;5.32;;
59659;SDS011;45534;52.690;6.268;2022-12-18T12:49:04;14.43;;;7.35;;
59659;SDS011;45534;52.690;6.268;2022-12-18T12:51:40;7.95;;;4.88;;
59659;SDS011;45534;52.690;6.268;2022-12-18T12:54:16;8.80;;;5.78;;
59659;SDS011;45534;52.690;6.268;2022-12-18T12:56:50;13.88;;;5.60;;
59659;SDS011;45534;52.690;6.268;2022-12-18T13:04:45;9.05;;;6.50;;
59659;SDS011;45534;52.690;6.268;2022-12-18T13:07:18;11.30;;;6.95;;
59659;SDS011;45534;52.690;6.268;2022-12-18T13:20:51;9.77;;;6.20;;
59659;SDS011;45534;52.690;6.268;2022-12-18T13:23:46;12.02;;;8.18;;
59659;SDS011;45534;52.690;6.268;2022-12-18T13:36:44;10.95;;;6.45;;
59659;SDS011;45534;52.690;6.268;2022-12-18T13:39:15;9.38;;;5.80;;
59659;SDS011;45534;52.690;6.268;2022-12-18T13:41:49;8.32;;;5.70;;
59659;SDS011;45534;52.690;6.268;2022-12-18T13:44:25;12.52;;;7.05;;
59659;SDS011;45534;52.690;6.268;2022-12-18T13:46:58;11.50;;;5.65;;
59659;SDS011;45534;52.690;6.268;2022-12-18T13:49:31;8.80;;;5.30;;
59659;SDS011;45534;52.690;6.268;2022-12-18T13:52:03;11.02;;;6.47;;
59659;SDS011;45534;52.690;6.268;2022-12-18T13:55:00;9.63;;;5.53;;
59659;SDS011;45534;52.690;6.268;2022-12-18T14:02:46;10.98;;;6.32;;
59659;SDS011;45534;52.690;6.268;2022-12-18T14:07:51;11.38;;;7.03;;
59659;SDS011;45534;52.690;6.268;2022-12-18T14:10:18;11.48;;;6.00;;
59659;SDS011;45534;52.690;6.268;2022-12-18T14:12:47;11.82;;;6.15;;
59659;SDS011;45534;52.690;6.268;2022-12-18T14:17:52;10.25;;;5.45;;
59659;SDS011;45534;52.690;6.268;2022-12-18T14:20:27;11.32;;;7.03;;
59659;SDS011;45534;52.690;6.268;2022-12-18T14:22:54;11.43;;;6.25;;
59659;SDS011;45534;52.690;6.268;2022-12-18T14:25:28;11.95;;;6.80;;
59659;SDS011;45534;52.690;6.268;2022-12-18T14:30:39;9.32;;;6.85;;
59659;SDS011;45534;52.690;6.268;2022-12-18T14:33:13;8.38;;;5.97;;
59659;SDS011;45534;52.690;6.268;2022-12-18T14:35:57;9.45;;;6.50;;
59659;SDS011;45534;52.690;6.268;2022-12-18T14:38:33;9.95;;;5.93;;
59659;SDS011;45534;52.690;6.268;2022-12-18T14:41:01;10.35;;;5.75;;
59659;SDS011;45534;52.690;6.268;2022-12-18T14:43:35;10.95;;;6.38;;
59659;SDS011;45534;52.690;6.268;2022-12-18T14:46:06;17.95;;;9.65;;
59659;SDS011;45534;52.690;6.268;2022-12-18T14:48:50;11.43;;;5.65;;
59659;SDS011;45534;52.690;6.268;2022-12-18T14:51:23;13.38;;;6.93;;
59659;SDS011;45534;52.690;6.268;2022-12-18T14:53:57;8.32;;;5.57;;
59659;SDS011;45534;52.690;6.268;2022-12-18T14:56:32;10.95;;;6.68;;
59659;SDS011;45534;52.690;6.268;2022-12-18T14:59:12;8.68;;;6.68;;
59659;SDS011;45534;52.690;6.268;2022-12-18T15:02:09;10.63;;;6.47;;
59659;SDS011;45534;52.690;6.268;2022-12-18T15:09:38;7.47;;;5.13;;
59659;SDS011;45534;52.690;6.268;2022-12-18T15:12:15;9.98;;;5.55;;
59659;SDS011;45534;52.690;6.268;2022-12-18T15:14:49;13.85;;;7.55;;
59659;SDS011;45534;52.690;6.268;2022-12-18T15:17:19;8.45;;;5.22;;
59659;SDS011;45534;52.690;6.268;2022-12-18T15:19:47;9.13;;;5.30;;
59659;SDS011;45534;52.690;6.268;2022-12-18T15:24:45;7.20;;;5.38;;
59659;SDS011;45534;52.690;6.268;2022-12-18T15:32:25;8.88;;;5.72;;
59659;SDS011;45534;52.690;6.268;2022-12-18T15:35:01;7.50;;;4.85;;
59659;SDS011;45534;52.690;6.268;2022-12-18T15:37:47;10.80;;;6.03;;
59659;SDS011;45534;52.690;6.268;2022-12-18T15:40:14;7.03;;;5.22;;
59659;SDS011;45534;52.690;6.268;2022-12-18T15:42:44;14.02;;;7.18;;
59659;SDS011;45534;52.690;6.268;2022-12-18T15:45:29;10.07;;;6.30;;
59659;SDS011;45534;52.690;6.268;2022-12-18T15:47:55;8.95;;;4.78;;
59659;SDS011;45534;52.690;6.268;2022-12-18T15:50:21;7.88;;;4.82;;
59659;SDS011;45534;52.690;6.268;2022-12-18T15:52:48;31.70;;;8.80;;
59659;SDS011;45534;52.690;6.268;2022-12-18T15:55:17;11.68;;;6.75;;
59659;SDS011;45534;52.690;6.268;2022-12-18T15:58:06;11.52;;;5.20;;
59659;SDS011;45534;52.690;6.268;2022-12-18T16:00:34;9.70;;;6.03;;
59659;SDS011;45534;52.690;6.268;2022-12-18T16:03:01;8.75;;;4.85;;
59659;SDS011;45534;52.690;6.268;2022-12-18T16:05:28;12.75;;;6.78;;
59659;SDS011;45534;52.690;6.268;2022-12-18T16:07:54;12.27;;;6.13;;
59659;SDS011;45534;52.690;6.268;2022-12-18T16:10:20;10.85;;;7.13;;
59659;SDS011;45534;52.690;6.268;2022-12-18T16:12:46;9.52;;;6.80;;
59659;SDS011;45534;52.690;6.268;2022-12-18T16:15:13;11.77;;;7.07;;
59659;SDS011;45534;52.690;6.268;2022-12-18T16:17:41;11.77;;;5.68;;
59659;SDS011;45534;52.690;6.268;2022-12-18T16:20:13;11.90;;;6.75;;
59659;SDS011;45534;52.690;6.268;2022-12-18T16:22:41;10.27;;;5.88;;
59659;SDS011;45534;52.690;6.268;2022-12-18T16:25:27;12.38;;;6.18;;
59659;SDS011;45534;52.690;6.268;2022-12-18T16:27:53;12.60;;;7.93;;
59659;SDS011;45534;52.690;6.268;2022-12-18T16:30:25;11.77;;;7.45;;
59659;SDS011;45534;52.690;6.268;2022-12-18T16:32:56;14.55;;;7.93;;
59659;SDS011;45534;52.690;6.268;2022-12-18T16:35:22;13.00;;;6.45;;
59659;SDS011;45534;52.690;6.268;2022-12-18T16:37:48;11.63;;;6.70;;
59659;SDS011;45534;52.690;6.268;2022-12-18T16:40:15;10.32;;;6.97;;
59659;SDS011;45534;52.690;6.268;2022-12-18T16:42:43;9.95;;;5.88;;
59659;SDS011;45534;52.690;6.268;2022-12-18T16:45:10;11.23;;;9.05;;
59659;SDS011;45534;52.690;6.268;2022-12-18T16:47:40;15.93;;;8.40;;
59659;SDS011;45534;52.690;6.268;2022-12-18T16:50:06;14.43;;;7.72;;
59659;SDS011;45534;52.690;6.268;2022-12-18T16:52:33;8.40;;;6.63;;
59659;SDS011;45534;52.690;6.268;2022-12-18T16:54:59;8.63;;;5.85;;
59659;SDS011;45534;52.690;6.268;2022-12-18T16:57:25;13.75;;;6.68;;
59659;SDS011;45534;52.690;6.268;2022-12-18T16:59:51;11.50;;;6.47;;
59659;SDS011;45534;52.690;6.268;2022-12-18T17:02:18;15.07;;;6.95;;
59659;SDS011;45534;52.690;6.268;2022-12-18T17:04:45;9.95;;;6.43;;
59659;SDS011;45534;52.690;6.268;2022-12-18T17:07:12;12.10;;;6.65;;
59659;SDS011;45534;52.690;6.268;2022-12-18T17:09:38;9.75;;;6.35;;
59659;SDS011;45534;52.690;6.268;2022-12-18T17:12:04;14.52;;;6.22;;